createdAt,value
2018-10-07T00:00:11.681Z,116.90
2018-10-07T00:01:11.658Z,119.80
2018-10-07T00:02:11.657Z,111.80
2018-10-07T00:03:11.627Z,116.90
2018-10-07T00:04:11.609Z,113.50
2018-10-07T00:05:11.605Z,113.30
2018-10-07T00:06:11.581Z,117.20
2018-10-07T00:07:11.557Z,112.90
2018-10-07T00:08:11.543Z,121.60
2018-10-07T00:09:11.527Z,114.50
2018-10-07T00:10:11.507Z,117.50
2018-10-07T00:11:11.489Z,125.20
2018-10-07T00:12:11.470Z,121.10
2018-10-07T00:13:11.562Z,128.10
2018-10-07T00:14:11.437Z,121.10
2018-10-07T00:15:11.423Z,127.90
2018-10-07T00:16:11.406Z,121.00
2018-10-07T00:17:11.385Z,129.40
2018-10-07T00:18:11.367Z,129.60
2018-10-07T00:19:11.350Z,125.10
2018-10-07T00:20:11.339Z,120.60
2018-10-07T00:21:11.323Z,128.50
2018-10-07T00:22:11.305Z,124.80
2018-10-07T00:23:11.285Z,125.70
2018-10-07T00:24:11.272Z,127.90
2018-10-07T00:25:11.250Z,129.00
2018-10-07T00:26:11.241Z,132.40
2018-10-07T00:27:11.218Z,124.20
2018-10-07T00:28:11.202Z,129.00
2018-10-07T00:29:11.177Z,132.10
2018-10-07T00:30:11.164Z,131.80
2018-10-07T00:31:11.145Z,131.00
2018-10-07T00:32:11.129Z,129.30
2018-10-07T00:33:11.110Z,126.80
2018-10-07T00:34:11.098Z,134.60
2018-10-07T00:35:11.078Z,128.80
2018-10-07T00:36:11.058Z,130.80
2018-10-07T00:37:11.040Z,127.50
2018-10-07T00:38:11.030Z,128.50
2018-10-07T00:39:11.006Z,125.10
2018-10-07T00:40:10.993Z,127.10
2018-10-07T00:41:10.972Z,134.80
2018-10-07T00:42:10.954Z,135.90
2018-10-07T00:43:10.936Z,138.60
2018-10-07T00:44:10.922Z,135.10
2018-10-07T00:45:10.904Z,136.90
2018-10-07T00:46:10.886Z,128.70
2018-10-07T00:47:10.867Z,138.00
2018-10-07T00:48:10.865Z,132.30
2018-10-07T00:49:10.833Z,138.40
2018-10-07T00:50:10.824Z,132.90
2018-10-07T00:51:10.798Z,136.20
2018-10-07T00:52:10.782Z,134.10
2018-10-07T00:53:10.778Z,142.20
2018-10-07T00:54:10.746Z,138.30
2018-10-07T00:55:10.733Z,130.90
2018-10-07T00:56:10.723Z,134.80
2018-10-07T00:57:10.702Z,136.90
2018-10-07T00:58:10.680Z,137.70
2018-10-07T00:59:10.666Z,135.20
2018-10-07T01:00:10.646Z,139.10
2018-10-07T01:01:10.627Z,140.80
2018-10-07T01:02:10.609Z,134.90
2018-10-07T01:03:10.591Z,137.40
2018-10-07T01:04:10.576Z,141.50
2018-10-07T01:05:10.561Z,133.80
2018-10-07T01:06:10.545Z,137.80
2018-10-07T01:07:10.526Z,136.30
2018-10-07T01:08:10.507Z,132.50
2018-10-07T01:09:10.489Z,131.20
2018-10-07T01:10:10.471Z,135.10
2018-10-07T01:11:10.458Z,130.80
2018-10-07T01:12:10.436Z,127.20
2018-10-07T01:13:10.424Z,127.30
2018-10-07T01:14:10.400Z,131.40
2018-10-07T01:15:10.385Z,121.50
2018-10-07T01:16:10.367Z,130.50
2018-10-07T01:17:10.350Z,130.40
2018-10-07T01:18:10.343Z,130.80
2018-10-07T01:19:10.323Z,126.80
2018-10-07T01:20:10.299Z,127.10
2018-10-07T01:21:10.298Z,127.10
2018-10-07T01:22:10.262Z,126.50
2018-10-07T01:23:10.246Z,130.60
2018-10-07T01:24:10.230Z,130.00
2018-10-07T01:25:10.219Z,126.80
2018-10-07T01:26:10.196Z,121.20
2018-10-07T01:27:10.180Z,123.60
2018-10-07T01:28:10.160Z,118.30
2018-10-07T01:29:10.149Z,119.80
2018-10-07T01:30:10.124Z,123.80
2018-10-07T01:31:10.108Z,121.60
2018-10-07T01:32:10.089Z,119.50
2018-10-07T01:33:10.071Z,119.60
2018-10-07T01:34:10.056Z,118.70
2018-10-07T01:35:10.038Z,115.80
2018-10-07T01:36:10.041Z,113.10
2018-10-07T01:37:10.014Z,117.50
2018-10-07T01:38:09.985Z,115.90
2018-10-07T01:39:09.966Z,114.00
2018-10-07T01:40:09.952Z,103.80
2018-10-07T01:41:09.934Z,106.60
2018-10-07T01:42:09.916Z,103.60
2018-10-07T01:43:09.903Z,107.40
2018-10-07T01:44:09.881Z,106.80
2018-10-07T01:45:09.996Z,99.80
2018-10-07T01:46:09.845Z,104.10
2018-10-07T01:47:09.829Z,105.30
2018-10-07T01:48:09.840Z,104.70
2018-10-07T01:49:09.794Z,97.50
2018-10-07T01:50:09.776Z,97.20
2018-10-07T01:51:09.760Z,96.00
2018-10-07T01:52:09.742Z,96.10
2018-10-07T01:53:09.729Z,96.00
2018-10-07T01:54:09.711Z,91.30
2018-10-07T01:55:09.694Z,88.10
2018-10-07T01:56:09.683Z,82.40
2018-10-07T01:57:09.657Z,89.70
2018-10-07T01:58:09.647Z,80.10
2018-10-07T01:59:09.632Z,81.80
2018-10-07T02:00:09.603Z,83.20
2018-10-07T02:01:09.590Z,87.90
2018-10-07T02:02:09.570Z,79.80
2018-10-07T02:03:09.559Z,80.10
2018-10-07T02:04:09.533Z,85.00
2018-10-07T02:05:09.640Z,78.30
2018-10-07T02:06:09.500Z,78.30
2018-10-07T02:07:09.619Z,81.30
2018-10-07T02:08:09.475Z,73.40
2018-10-07T02:09:09.448Z,69.10
2018-10-07T02:10:09.440Z,69.10
2018-10-07T02:11:09.414Z,71.30
2018-10-07T02:12:09.463Z,71.90
2018-10-07T02:13:09.386Z,68.50
2018-10-07T02:14:09.358Z,61.50
2018-10-07T02:15:09.375Z,64.50
2018-10-07T02:16:09.324Z,66.00
2018-10-07T02:17:09.324Z,67.30
2018-10-07T02:18:09.298Z,68.20
2018-10-07T02:19:09.272Z,67.20
2018-10-07T02:20:09.257Z,72.90
2018-10-07T02:21:09.237Z,63.50
2018-10-07T02:22:09.225Z,68.90
2018-10-07T02:23:09.211Z,65.90
2018-10-07T02:24:09.188Z,60.80
2018-10-07T02:25:09.178Z,68.40
2018-10-07T02:26:09.149Z,65.80
2018-10-07T02:27:09.133Z,66.30
2018-10-07T02:28:09.125Z,62.60
2018-10-07T02:29:09.099Z,63.20
2018-10-07T02:30:09.079Z,60.20
2018-10-07T02:31:09.063Z,64.20
2018-10-07T02:32:09.050Z,57.70
2018-10-07T02:33:09.027Z,54.20
2018-10-07T02:34:09.008Z,58.40
2018-10-07T02:35:09.002Z,51.00
2018-10-07T02:36:08.974Z,51.90
2018-10-07T02:37:09.065Z,55.50
2018-10-07T02:38:08.948Z,50.80
2018-10-07T02:39:08.921Z,45.90
2018-10-07T02:40:08.906Z,46.10
2018-10-07T02:41:08.889Z,44.00
2018-10-07T02:42:08.871Z,42.60
2018-10-07T02:43:08.854Z,46.10
2018-10-07T02:44:08.835Z,38.20
2018-10-07T02:45:08.820Z,41.60
2018-10-07T02:46:08.800Z,37.70
2018-10-07T02:47:08.786Z,39.90
2018-10-07T02:48:08.762Z,36.70
2018-10-07T02:49:08.746Z,36.70
2018-10-07T02:50:08.727Z,37.20
2018-10-07T02:51:08.710Z,34.40
2018-10-07T02:52:08.692Z,35.60
2018-10-07T02:53:08.728Z,36.00
2018-10-07T02:54:08.659Z,33.70
2018-10-07T02:55:08.637Z,33.70
2018-10-07T02:56:08.617Z,33.90
2018-10-07T02:57:08.602Z,37.00
2018-10-07T02:58:08.582Z,28.80
2018-10-07T02:59:08.563Z,34.80
2018-10-07T03:00:08.547Z,33.00
2018-10-07T03:01:08.533Z,33.40
2018-10-07T03:02:08.520Z,34.90
2018-10-07T03:03:08.494Z,31.60
2018-10-07T03:04:08.574Z,31.30
2018-10-07T03:05:08.456Z,33.90
2018-10-07T03:06:08.439Z,29.60
2018-10-07T03:07:08.427Z,32.80
2018-10-07T03:08:08.402Z,29.60
2018-10-07T03:09:08.384Z,36.70
2018-10-07T03:10:08.366Z,32.10
2018-10-07T03:11:08.350Z,36.00
2018-10-07T03:12:08.327Z,32.80
2018-10-07T03:13:08.312Z,31.90
2018-10-07T03:14:08.291Z,28.80
2018-10-07T03:15:08.281Z,33.10
2018-10-07T03:16:08.254Z,29.30
2018-10-07T03:17:08.243Z,31.50
2018-10-07T03:18:08.221Z,30.20
2018-10-07T03:19:08.202Z,33.20
2018-10-07T03:20:08.244Z,34.80
2018-10-07T03:21:08.168Z,28.60
2018-10-07T03:22:08.150Z,32.50
2018-10-07T03:23:08.127Z,30.50
2018-10-07T03:24:08.109Z,28.70
2018-10-07T03:25:08.090Z,28.60
2018-10-07T03:26:08.093Z,24.90
2018-10-07T03:27:08.055Z,25.50
2018-10-07T03:28:08.036Z,26.40
2018-10-07T03:29:08.029Z,26.70
2018-10-07T03:30:08.013Z,23.80
2018-10-07T03:31:07.980Z,27.00
2018-10-07T03:32:07.971Z,24.30
2018-10-07T03:33:07.945Z,23.00
2018-10-07T03:34:07.926Z,23.30
2018-10-07T03:35:07.911Z,19.50
2018-10-07T03:36:07.891Z,18.30
2018-10-07T03:37:07.870Z,23.70
2018-10-07T03:38:07.853Z,17.60
2018-10-07T03:39:07.849Z,15.80
2018-10-07T03:40:07.817Z,20.10
2018-10-07T03:41:07.796Z,17.50
2018-10-07T03:42:07.781Z,19.20
2018-10-07T03:43:07.768Z,16.00
2018-10-07T03:44:07.740Z,13.40
2018-10-07T03:45:07.727Z,17.50
2018-10-07T03:46:07.701Z,13.70
2018-10-07T03:47:07.694Z,14.00
2018-10-07T03:48:07.664Z,14.40
2018-10-07T03:49:07.649Z,16.40
2018-10-07T03:50:07.649Z,13.10
2018-10-07T03:51:07.610Z,15.20
2018-10-07T03:52:07.593Z,15.60
2018-10-07T03:53:07.572Z,14.20
2018-10-07T03:54:07.552Z,15.80
2018-10-07T03:55:07.542Z,13.50
2018-10-07T03:56:07.514Z,11.80
2018-10-07T03:57:07.494Z,13.70
2018-10-07T03:58:07.477Z,12.00
2018-10-07T03:59:07.459Z,11.40
2018-10-07T04:00:07.448Z,11.90
2018-10-07T04:01:07.420Z,15.10
2018-10-07T04:02:07.404Z,14.00
2018-10-07T04:03:07.382Z,12.70
2018-10-07T04:04:07.363Z,11.20
2018-10-07T04:05:07.343Z,14.80
2018-10-07T04:06:07.328Z,11.20
2018-10-07T04:07:07.310Z,16.40
2018-10-07T04:08:07.288Z,17.80
2018-10-07T04:09:07.271Z,13.20
2018-10-07T04:10:07.250Z,17.50
2018-10-07T04:11:07.233Z,10.70
2018-10-07T04:12:07.368Z,13.70
2018-10-07T04:13:07.192Z,12.50
2018-10-07T04:14:07.176Z,17.60
2018-10-07T04:15:07.155Z,12.90
2018-10-07T04:16:07.134Z,11.90
2018-10-07T04:17:07.117Z,12.60
2018-10-07T04:18:07.100Z,12.70
2018-10-07T04:19:07.078Z,8.70
2018-10-07T04:20:07.059Z,8.40
2018-10-07T04:21:07.040Z,13.50
2018-10-07T04:22:07.020Z,11.40
2018-10-07T04:23:07.002Z,8.30
2018-10-07T04:24:06.982Z,12.20
2018-10-07T04:25:06.962Z,12.50
2018-10-07T04:26:06.954Z,12.40
2018-10-07T04:27:06.926Z,10.50
2018-10-07T04:28:06.907Z,9.00
2018-10-07T04:29:06.885Z,9.90
2018-10-07T04:30:06.865Z,12.40
2018-10-07T04:31:06.849Z,10.00
2018-10-07T04:32:06.829Z,11.20
2018-10-07T04:33:06.811Z,7.30
2018-10-07T04:34:06.803Z,12.20
2018-10-07T04:35:06.771Z,8.80
2018-10-07T04:36:06.750Z,8.80
2018-10-07T04:37:06.742Z,9.30
2018-10-07T04:38:06.719Z,7.70
2018-10-07T04:39:06.701Z,11.00
2018-10-07T04:40:06.673Z,7.50
2018-10-07T04:41:06.659Z,6.90
2018-10-07T04:42:06.735Z,8.70
2018-10-07T04:43:06.616Z,9.20
2018-10-07T04:44:06.600Z,7.10
2018-10-07T04:45:06.581Z,10.90
2018-10-07T04:46:06.560Z,6.10
2018-10-07T04:47:06.542Z,8.80
2018-10-07T04:48:06.520Z,7.40
2018-10-07T04:49:06.501Z,8.40
2018-10-07T04:50:06.568Z,4.50
2018-10-07T04:51:06.465Z,7.40
2018-10-07T04:52:06.452Z,7.00
2018-10-07T04:53:06.424Z,7.70
2018-10-07T04:54:06.411Z,10.30
2018-10-07T04:55:06.389Z,7.10
2018-10-07T04:56:06.369Z,5.80
2018-10-07T04:57:06.345Z,8.90
2018-10-07T04:58:06.327Z,10.30
2018-10-07T04:59:06.306Z,9.70
2018-10-07T05:00:06.302Z,9.70
2018-10-07T05:01:06.268Z,6.00
2018-10-07T05:02:06.248Z,8.90
2018-10-07T05:03:06.237Z,8.70
2018-10-07T05:04:06.212Z,5.30
2018-10-07T05:05:06.194Z,9.80
2018-10-07T05:06:06.172Z,7.40
2018-10-07T05:07:06.159Z,7.70
2018-10-07T05:08:06.133Z,6.80
2018-10-07T05:09:06.115Z,6.90
2018-10-07T05:10:06.096Z,5.70
2018-10-07T05:11:06.074Z,9.20
2018-10-07T05:12:06.080Z,6.30
2018-10-07T05:13:06.041Z,5.30
2018-10-07T05:14:06.016Z,9.30
2018-10-07T05:15:05.996Z,11.20
2018-10-07T05:16:05.981Z,6.40
2018-10-07T05:17:05.957Z,4.00
2018-10-07T05:18:05.946Z,6.40
2018-10-07T05:19:05.921Z,9.40
2018-10-07T05:20:05.901Z,4.30
2018-10-07T05:21:05.978Z,8.10
2018-10-07T05:22:05.859Z,8.30
2018-10-07T05:23:05.949Z,9.40
2018-10-07T05:24:05.823Z,5.80
2018-10-07T05:25:05.803Z,5.40
2018-10-07T05:26:05.794Z,6.70
2018-10-07T05:27:05.766Z,6.30
2018-10-07T05:28:05.747Z,5.70
2018-10-07T05:29:05.725Z,6.90
2018-10-07T05:30:05.708Z,4.70
2018-10-07T05:31:05.693Z,3.90
2018-10-07T05:32:05.665Z,7.20
2018-10-07T05:33:05.698Z,5.70
2018-10-07T05:34:05.625Z,10.50
2018-10-07T05:35:05.607Z,7.50
2018-10-07T05:36:05.593Z,6.20
2018-10-07T05:37:05.622Z,10.70
2018-10-07T05:38:05.547Z,7.00
2018-10-07T05:39:05.544Z,10.50
2018-10-07T05:40:05.509Z,7.10
2018-10-07T05:41:05.491Z,7.20
2018-10-07T05:42:05.468Z,6.50
2018-10-07T05:43:05.452Z,6.10
2018-10-07T05:44:05.432Z,7.20
2018-10-07T05:45:05.411Z,8.80
2018-10-07T05:46:05.391Z,7.10
2018-10-07T05:47:05.374Z,5.70
2018-10-07T05:48:05.351Z,6.10
2018-10-07T05:49:05.340Z,7.50
2018-10-07T05:50:05.479Z,5.20
2018-10-07T05:51:05.296Z,8.40
2018-10-07T05:52:05.282Z,4.60
2018-10-07T05:53:05.255Z,5.90
2018-10-07T05:54:05.237Z,6.80
2018-10-07T05:55:05.216Z,6.70
2018-10-07T05:56:05.204Z,9.40
2018-10-07T05:57:05.177Z,8.00
2018-10-07T05:58:05.156Z,14.90
2018-10-07T05:59:05.145Z,6.70
2018-10-07T06:00:05.119Z,14.10
2018-10-07T06:01:05.099Z,4.10
2018-10-07T06:02:05.140Z,6.00
2018-10-07T06:03:05.066Z,7.20
2018-10-07T06:04:05.051Z,5.50
2018-10-07T06:05:05.026Z,4.50
2018-10-07T06:06:04.999Z,5.60
2018-10-07T06:07:04.981Z,4.40
2018-10-07T06:08:04.962Z,6.30
2018-10-07T06:09:04.940Z,8.70
2018-10-07T06:10:04.920Z,5.90
2018-10-07T06:11:04.897Z,5.90
2018-10-07T06:12:04.881Z,4.10
2018-10-07T06:13:04.869Z,2.70
2018-10-07T06:14:04.841Z,9.60
2018-10-07T06:15:04.823Z,4.40
2018-10-07T06:16:04.804Z,9.10
2018-10-07T06:17:04.784Z,8.30
2018-10-07T06:18:04.770Z,4.60
2018-10-07T06:19:04.743Z,11.10
2018-10-07T06:20:04.734Z,6.20
2018-10-07T06:21:04.712Z,8.10
2018-10-07T06:22:04.687Z,10.60
2018-10-07T06:23:04.829Z,5.70
2018-10-07T06:24:04.645Z,8.00
2018-10-07T06:25:04.624Z,11.30
2018-10-07T06:26:04.614Z,9.30
2018-10-07T06:27:04.584Z,7.30
2018-10-07T06:28:04.567Z,6.20
2018-10-07T06:29:04.550Z,9.10
2018-10-07T06:30:04.526Z,11.10
2018-10-07T06:31:04.519Z,5.90
2018-10-07T06:32:04.489Z,9.10
2018-10-07T06:33:04.470Z,6.70
2018-10-07T06:34:04.448Z,8.30
2018-10-07T06:35:04.429Z,6.30
2018-10-07T06:36:04.410Z,6.60
2018-10-07T06:37:04.397Z,9.40
2018-10-07T06:38:04.370Z,15.30
2018-10-07T06:39:04.355Z,16.10
2018-10-07T06:40:04.337Z,7.60
2018-10-07T06:41:04.319Z,8.70
2018-10-07T06:42:04.296Z,8.00
2018-10-07T06:43:04.275Z,6.00
2018-10-07T06:44:04.256Z,6.10
2018-10-07T06:45:04.346Z,10.00
2018-10-07T06:46:04.216Z,6.90
2018-10-07T06:47:04.205Z,7.10
2018-10-07T06:48:04.178Z,5.30
2018-10-07T06:49:04.159Z,6.50
2018-10-07T06:50:04.146Z,6.70
2018-10-07T06:51:04.122Z,6.30
2018-10-07T06:52:04.110Z,5.40
2018-10-07T06:53:04.085Z,2.90
2018-10-07T06:54:04.068Z,4.30
2018-10-07T06:55:04.044Z,5.70
2018-10-07T06:56:04.040Z,6.60
2018-10-07T06:57:04.008Z,4.20
2018-10-07T06:58:04.005Z,4.60
2018-10-07T06:59:03.969Z,5.10
2018-10-07T07:00:03.952Z,1.60
2018-10-07T07:01:03.929Z,3.60
2018-10-07T07:02:03.909Z,5.50
2018-10-07T07:03:03.891Z,5.00
2018-10-07T07:04:03.871Z,5.20
2018-10-07T07:05:03.854Z,7.10
2018-10-07T07:06:03.832Z,6.30
2018-10-07T07:07:03.825Z,3.50
2018-10-07T07:08:03.804Z,3.70
2018-10-07T07:09:03.782Z,3.80
2018-10-07T07:10:03.765Z,4.00
2018-10-07T07:11:03.735Z,3.60
2018-10-07T07:12:03.727Z,5.50
2018-10-07T07:13:03.812Z,3.30
2018-10-07T07:14:03.679Z,2.80
2018-10-07T07:15:03.871Z,3.20
2018-10-07T07:16:03.644Z,3.90
2018-10-07T07:17:03.620Z,3.60
2018-10-07T07:18:03.601Z,5.60
2018-10-07T07:19:03.586Z,4.10
2018-10-07T07:20:03.576Z,3.50
2018-10-07T07:21:03.562Z,4.60
2018-10-07T07:22:03.526Z,3.70
2018-10-07T07:23:03.514Z,1.80
2018-10-07T07:24:03.484Z,6.40
2018-10-07T07:25:03.468Z,4.80
2018-10-07T07:26:03.457Z,3.40
2018-10-07T07:27:03.426Z,4.20
2018-10-07T07:28:03.407Z,4.10
2018-10-07T07:29:03.394Z,3.30
2018-10-07T07:30:03.367Z,4.10
2018-10-07T07:31:03.349Z,3.10
2018-10-07T07:32:03.330Z,2.50
2018-10-07T07:33:03.329Z,2.30
2018-10-07T07:34:03.305Z,4.10
2018-10-07T07:35:03.273Z,1.80
2018-10-07T07:36:03.261Z,2.30
2018-10-07T07:37:03.234Z,4.80
2018-10-07T07:38:03.218Z,4.00
2018-10-07T07:39:03.202Z,3.90
2018-10-07T07:40:03.178Z,2.30
2018-10-07T07:41:03.157Z,4.80
2018-10-07T07:42:03.142Z,3.00
2018-10-07T07:43:03.128Z,6.10
2018-10-07T07:44:03.098Z,3.80
2018-10-07T07:45:03.083Z,6.50
2018-10-07T07:46:03.061Z,3.30
2018-10-07T07:47:03.040Z,4.60
2018-10-07T07:48:03.025Z,7.80
2018-10-07T07:49:03.045Z,4.00
2018-10-07T07:50:02.984Z,6.00
2018-10-07T07:51:02.964Z,5.10
2018-10-07T07:52:02.949Z,2.00
2018-10-07T07:53:02.923Z,3.20
2018-10-07T07:54:03.027Z,4.70
2018-10-07T07:55:02.904Z,2.50
2018-10-07T07:56:02.879Z,4.20
2018-10-07T07:57:02.845Z,2.70
2018-10-07T07:58:02.826Z,9.40
2018-10-07T07:59:02.807Z,3.40
2018-10-07T08:00:02.790Z,4.60
2018-10-07T08:01:02.777Z,2.80
2018-10-07T08:02:02.750Z,2.50
2018-10-07T08:03:02.750Z,2.40
2018-10-07T08:04:02.708Z,2.30
2018-10-07T08:05:02.697Z,4.60
2018-10-07T08:06:02.680Z,3.00
2018-10-07T08:07:02.650Z,2.70
2018-10-07T08:08:02.633Z,2.90
2018-10-07T08:09:02.616Z,3.60
2018-10-07T08:10:02.591Z,2.40
2018-10-07T08:11:02.571Z,4.00
2018-10-07T08:12:02.559Z,2.60
2018-10-07T08:13:02.582Z,4.60
2018-10-07T08:14:02.514Z,1.80
2018-10-07T08:15:02.492Z,2.80
2018-10-07T08:16:02.477Z,4.30
2018-10-07T08:17:02.461Z,3.60
2018-10-07T08:18:02.438Z,4.80
2018-10-07T08:19:02.416Z,3.50
2018-10-07T08:20:02.395Z,3.70
2018-10-07T08:21:02.375Z,2.00
2018-10-07T08:22:02.357Z,6.80
2018-10-07T08:23:02.341Z,1.70
2018-10-07T08:24:02.317Z,2.10
2018-10-07T08:25:02.300Z,4.10
2018-10-07T08:26:02.279Z,3.70
2018-10-07T08:27:02.258Z,2.70
2018-10-07T08:28:02.246Z,3.80
2018-10-07T08:29:02.220Z,3.30
2018-10-07T08:30:02.215Z,3.90
2018-10-07T08:31:02.180Z,2.30
2018-10-07T08:32:02.161Z,5.30
2018-10-07T08:33:02.143Z,3.90
2018-10-07T08:34:02.126Z,2.60
2018-10-07T08:35:02.188Z,3.20
2018-10-07T08:36:02.087Z,3.00
2018-10-07T08:37:02.077Z,6.10
2018-10-07T08:38:02.050Z,3.50
2018-10-07T08:39:02.029Z,4.60
2018-10-07T08:40:02.012Z,3.60
2018-10-07T08:41:02.014Z,2.90
2018-10-07T08:42:01.972Z,5.10
2018-10-07T08:43:01.963Z,5.10
2018-10-07T08:44:01.933Z,3.30
2018-10-07T08:45:01.917Z,7.30
2018-10-07T08:46:01.902Z,5.50
2018-10-07T08:47:01.879Z,3.50
2018-10-07T08:48:01.860Z,3.10
2018-10-07T08:49:01.847Z,2.50
2018-10-07T08:50:01.826Z,6.70
2018-10-07T08:51:01.818Z,3.90
2018-10-07T08:52:01.785Z,3.50
2018-10-07T08:53:01.766Z,3.50
2018-10-07T08:54:01.749Z,2.80
2018-10-07T08:55:01.732Z,5.10
2018-10-07T08:56:01.780Z,4.30
2018-10-07T08:57:01.699Z,8.30
2018-10-07T08:58:01.678Z,8.00
2018-10-07T08:59:01.663Z,3.40
2018-10-07T09:00:01.653Z,2.80
2018-10-07T09:01:01.645Z,4.40
2018-10-07T09:02:01.679Z,3.80
2018-10-07T09:03:01.599Z,6.50
2018-10-07T09:04:01.574Z,8.20
2018-10-07T09:05:01.561Z,3.10
2018-10-07T09:06:01.544Z,3.70
2018-10-07T09:07:01.527Z,2.40
2018-10-07T09:08:01.515Z,3.90
2018-10-07T09:09:01.567Z,5.40
2018-10-07T09:10:01.483Z,3.70
2018-10-07T09:11:01.469Z,3.20
2018-10-07T09:12:01.457Z,3.30
2018-10-07T09:13:01.435Z,3.20
2018-10-07T09:14:01.415Z,6.60
2018-10-07T09:15:01.405Z,5.60
2018-10-07T09:16:01.387Z,3.80
2018-10-07T09:17:01.375Z,4.30
2018-10-07T09:18:01.356Z,4.80
2018-10-07T09:19:01.339Z,3.90
2018-10-07T09:20:01.333Z,3.80
2018-10-07T09:21:01.388Z,4.00
2018-10-07T09:22:01.304Z,2.40
2018-10-07T09:23:01.291Z,4.10
2018-10-07T09:24:01.306Z,3.20
2018-10-07T09:25:01.251Z,3.30
2018-10-07T09:26:01.346Z,3.90
2018-10-07T09:27:01.306Z,4.60
2018-10-07T09:28:01.207Z,5.70
2018-10-07T09:29:01.208Z,3.40
2018-10-07T09:30:01.180Z,6.20
2018-10-07T09:31:01.170Z,3.80
2018-10-07T09:32:01.156Z,2.60
2018-10-07T09:33:01.130Z,4.60
2018-10-07T09:34:01.116Z,2.20
2018-10-07T09:35:01.111Z,4.70
2018-10-07T09:36:01.093Z,5.10
2018-10-07T09:37:01.077Z,6.70
2018-10-07T09:38:01.053Z,4.30
2018-10-07T09:39:01.039Z,3.70
2018-10-07T09:40:01.037Z,5.30
2018-10-07T09:41:01.009Z,2.50
2018-10-07T09:42:00.994Z,3.70
2018-10-07T09:43:00.984Z,5.40
2018-10-07T09:44:00.964Z,2.80
2018-10-07T09:45:00.963Z,3.60
2018-10-07T09:46:00.985Z,6.70
2018-10-07T09:47:00.972Z,3.50
2018-10-07T09:48:00.940Z,6.50
2018-10-07T09:49:00.905Z,5.50
2018-10-07T09:50:00.887Z,4.90
2018-10-07T09:51:00.869Z,3.10
2018-10-07T09:52:00.862Z,4.00
2018-10-07T09:53:00.842Z,6.90
2018-10-07T09:54:00.835Z,5.50
2018-10-07T09:55:00.817Z,7.00
2018-10-07T09:56:00.803Z,10.40
2018-10-07T09:57:00.796Z,9.50
2018-10-07T09:58:00.815Z,17.90
2018-10-07T09:59:00.843Z,7.40
2018-10-07T10:00:00.755Z,5.20
2018-10-07T10:01:00.751Z,7.40
2018-10-07T10:02:00.731Z,5.90
2018-10-07T10:03:00.730Z,13.70
2018-10-07T10:04:00.809Z,17.40
2018-10-07T10:05:00.703Z,9.50
2018-10-07T10:06:00.693Z,5.50
2018-10-07T10:07:00.707Z,6.70
2018-10-07T10:08:00.665Z,4.20
2018-10-07T10:09:00.755Z,4.40
2018-10-07T10:10:00.647Z,4.10
2018-10-07T10:11:00.676Z,6.00
2018-10-07T10:12:00.623Z,5.50
2018-10-07T10:13:00.608Z,7.00
2018-10-07T10:14:00.641Z,3.80
2018-10-07T10:15:00.584Z,6.10
2018-10-07T10:16:00.573Z,6.70
2018-10-07T10:17:00.563Z,4.80
2018-10-07T10:18:00.558Z,4.70
2018-10-07T10:19:00.976Z,7.00
2018-10-07T10:20:00.574Z,7.70
2018-10-07T10:21:00.522Z,6.00
2018-10-07T10:22:00.507Z,4.10
2018-10-07T10:23:00.494Z,9.10
2018-10-07T10:24:00.484Z,9.10
2018-10-07T10:25:00.494Z,7.90
2018-10-07T10:26:00.459Z,7.70
2018-10-07T10:27:00.448Z,9.80
2018-10-07T10:28:00.444Z,5.20
2018-10-07T10:29:00.423Z,7.30
2018-10-07T10:30:00.410Z,5.40
2018-10-07T10:31:00.403Z,3.70
2018-10-07T10:32:00.387Z,4.60
2018-10-07T10:33:00.375Z,4.50
2018-10-07T10:34:00.363Z,6.20
2018-10-07T10:35:00.358Z,4.10
2018-10-07T10:36:00.340Z,4.20
2018-10-07T10:37:00.426Z,5.00
2018-10-07T10:38:00.323Z,5.70
2018-10-07T10:39:00.303Z,3.70
2018-10-07T10:40:00.308Z,5.40
2018-10-07T10:41:00.286Z,6.20
2018-10-07T10:42:00.273Z,5.00
2018-10-07T10:43:00.255Z,4.60
2018-10-07T10:44:00.254Z,9.30
2018-10-07T10:45:00.235Z,4.20
2018-10-07T10:46:00.221Z,5.70
2018-10-07T10:47:00.211Z,2.90
2018-10-07T10:48:00.199Z,5.00
2018-10-07T10:49:00.190Z,4.50
2018-10-07T10:50:00.180Z,6.40
2018-10-07T10:51:00.168Z,5.70
2018-10-07T10:52:00.150Z,5.40
2018-10-07T10:53:00.139Z,4.30
2018-10-07T10:54:00.145Z,6.10
2018-10-07T10:55:00.121Z,4.40
2018-10-07T10:56:00.107Z,5.50
2018-10-07T10:57:00.095Z,3.90
2018-10-07T10:58:00.081Z,3.40
2018-10-07T10:59:00.070Z,7.40
2018-10-07T11:00:00.078Z,3.80
2018-10-07T11:01:00.101Z,8.30
2018-10-07T11:02:00.035Z,5.30
2018-10-07T11:03:00.031Z,4.50
2018-10-07T11:04:00.023Z,5.40
2018-10-07T11:05:00.010Z,4.60
2018-10-07T11:05:59.987Z,3.80
2018-10-07T11:06:59.983Z,5.10
2018-10-07T11:07:59.971Z,5.30
2018-10-07T11:08:59.959Z,3.60
2018-10-07T11:09:59.943Z,4.50
2018-10-07T11:10:59.939Z,5.40
2018-10-07T11:11:59.918Z,4.00
2018-10-07T11:12:59.913Z,6.20
2018-10-07T11:14:00.047Z,6.10
2018-10-07T11:14:59.888Z,3.60
2018-10-07T11:15:59.879Z,4.30
2018-10-07T11:16:59.861Z,4.70
2018-10-07T11:17:59.856Z,4.30
2018-10-07T11:18:59.848Z,4.90
2018-10-07T11:19:59.821Z,4.50
2018-10-07T11:20:59.810Z,3.80
2018-10-07T11:21:59.804Z,4.40
2018-10-07T11:22:59.785Z,4.60
2018-10-07T11:23:59.781Z,6.10
2018-10-07T11:24:59.759Z,4.50
2018-10-07T11:25:59.753Z,4.30
2018-10-07T11:26:59.742Z,3.90
2018-10-07T11:27:59.721Z,4.40
2018-10-07T11:28:59.716Z,5.00
2018-10-07T11:29:59.696Z,5.20
2018-10-07T11:30:59.694Z,5.00
2018-10-07T11:31:59.669Z,5.50
2018-10-07T11:32:59.659Z,4.00
2018-10-07T11:33:59.641Z,3.20
2018-10-07T11:34:59.647Z,5.80
2018-10-07T11:35:59.626Z,4.40
2018-10-07T11:36:59.603Z,2.80
2018-10-07T11:37:59.589Z,7.40
2018-10-07T11:38:59.574Z,4.70
2018-10-07T11:39:59.574Z,3.80
2018-10-07T11:40:59.549Z,6.00
2018-10-07T11:41:59.546Z,4.90
2018-10-07T11:42:59.532Z,5.80
2018-10-07T11:43:59.507Z,5.30
2018-10-07T11:44:59.495Z,5.90
2018-10-07T11:45:59.488Z,3.50
2018-10-07T11:46:59.465Z,7.40
2018-10-07T11:47:59.452Z,4.30
2018-10-07T11:48:59.450Z,5.90
2018-10-07T11:49:59.430Z,4.60
2018-10-07T11:50:59.410Z,4.50
2018-10-07T11:51:59.404Z,5.90
2018-10-07T11:52:59.512Z,7.80
2018-10-07T11:53:59.367Z,3.90
2018-10-07T11:54:59.354Z,4.50
2018-10-07T11:55:59.338Z,6.10
2018-10-07T11:56:59.326Z,5.90
2018-10-07T11:57:59.313Z,3.60
2018-10-07T11:58:59.293Z,5.70
2018-10-07T11:59:59.285Z,5.10
2018-10-07T12:00:59.280Z,4.50
2018-10-07T12:01:59.265Z,6.10
2018-10-07T12:02:59.250Z,6.70
2018-10-07T12:03:59.221Z,6.20
2018-10-07T12:04:59.218Z,6.10
2018-10-07T12:05:59.203Z,4.60
2018-10-07T12:06:59.175Z,4.30
2018-10-07T12:07:59.174Z,3.50
2018-10-07T12:08:59.156Z,4.00
2018-10-07T12:09:59.174Z,3.40
2018-10-07T12:10:59.114Z,5.80
2018-10-07T12:11:59.110Z,3.70
2018-10-07T12:12:59.090Z,7.20
2018-10-07T12:13:59.075Z,5.60
2018-10-07T12:14:59.056Z,4.40
2018-10-07T12:15:59.038Z,5.10
2018-10-07T12:16:59.027Z,6.90
2018-10-07T12:17:59.015Z,5.80
2018-10-07T12:18:59.010Z,5.40
2018-10-07T12:19:58.976Z,5.10
2018-10-07T12:20:58.969Z,6.50
2018-10-07T12:21:58.945Z,7.30
2018-10-07T12:22:58.930Z,8.90
2018-10-07T12:23:58.915Z,3.20
2018-10-07T12:24:58.907Z,10.40
2018-10-07T12:25:58.885Z,6.30
2018-10-07T12:26:58.876Z,6.20
2018-10-07T12:27:58.854Z,4.80
2018-10-07T12:28:58.899Z,5.90
2018-10-07T12:29:58.834Z,6.30
2018-10-07T12:30:59.016Z,4.30
2018-10-07T12:31:58.788Z,3.50
2018-10-07T12:32:58.791Z,3.40
2018-10-07T12:33:58.756Z,6.80
2018-10-07T12:34:58.739Z,5.10
2018-10-07T12:35:58.723Z,9.10
2018-10-07T12:36:58.708Z,4.50
2018-10-07T12:37:58.699Z,5.00
2018-10-07T12:38:58.679Z,6.20
2018-10-07T12:39:58.661Z,4.30
2018-10-07T12:40:58.644Z,3.60
2018-10-07T12:41:58.627Z,5.10
2018-10-07T12:42:58.615Z,4.00
2018-10-07T12:43:58.601Z,6.20
2018-10-07T12:44:58.589Z,9.80
2018-10-07T12:45:58.560Z,7.80
2018-10-07T12:46:58.548Z,5.80
2018-10-07T12:47:58.534Z,6.10
2018-10-07T12:48:58.520Z,5.70
2018-10-07T12:49:58.495Z,6.20
2018-10-07T12:50:58.477Z,7.80
2018-10-07T12:51:58.463Z,5.30
2018-10-07T12:52:58.454Z,6.00
2018-10-07T12:53:58.478Z,6.10
2018-10-07T12:54:58.413Z,12.20
2018-10-07T12:55:58.405Z,7.60
2018-10-07T12:56:58.386Z,6.90
2018-10-07T12:57:58.381Z,5.60
2018-10-07T12:58:58.349Z,8.10
2018-10-07T12:59:58.334Z,3.70
2018-10-07T13:00:58.323Z,6.60
2018-10-07T13:01:58.302Z,6.20
2018-10-07T13:02:58.293Z,4.60
2018-10-07T13:03:58.270Z,8.40
2018-10-07T13:04:58.269Z,5.90